sensor_id;sensor_type;location;lat;lon;timestamp;P1;durP1;ratioP1;P2;durP2;ratioP2
64959;SDS011;51487;52.266;10.542;2023-03-01T00:00:20;13.38;;;9.38;;
64959;SDS011;51487;52.266;10.542;2023-03-01T00:02:46;15.50;;;9.02;;
64959;SDS011;51487;52.266;10.542;2023-03-01T00:05:11;11.57;;;8.93;;
64959;SDS011;51487;52.266;10.542;2023-03-01T00:07:37;14.00;;;9.07;;
64959;SDS011;51487;52.266;10.542;2023-03-01T00:10:03;11.98;;;8.13;;
64959;SDS011;51487;52.266;10.542;2023-03-01T00:12:28;15.50;;;9.20;;
64959;SDS011;51487;52.266;10.542;2023-03-01T00:14:54;12.30;;;8.70;;
64959;SDS011;51487;52.266;10.542;2023-03-01T00:17:19;15.52;;;9.18;;
64959;SDS011;51487;52.266;10.542;2023-03-01T00:19:45;13.98;;;8.93;;
64959;SDS011;51487;52.266;10.542;2023-03-01T00:22:13;13.63;;;9.18;;
64959;SDS011;51487;52.266;10.542;2023-03-01T00:24:38;13.02;;;8.25;;
64959;SDS011;51487;52.266;10.542;2023-03-01T00:27:04;13.02;;;8.57;;
64959;SDS011;51487;52.266;10.542;2023-03-01T00:29:29;12.77;;;8.45;;
64959;SDS011;51487;52.266;10.542;2023-03-01T00:31:55;11.52;;;7.55;;
64959;SDS011;51487;52.266;10.542;2023-03-01T00:34:20;11.85;;;8.80;;
64959;SDS011;51487;52.266;10.542;2023-03-01T00:36:46;13.23;;;9.18;;
64959;SDS011;51487;52.266;10.542;2023-03-01T00:39:12;12.93;;;8.80;;
64959;SDS011;51487;52.266;10.542;2023-03-01T00:41:40;11.88;;;8.25;;
64959;SDS011;51487;52.266;10.542;2023-03-01T00:44:06;11.10;;;8.02;;
64959;SDS011;51487;52.266;10.542;2023-03-01T00:46:32;14.48;;;9.55;;
64959;SDS011;51487;52.266;10.542;2023-03-01T00:48:58;11.93;;;8.15;;
64959;SDS011;51487;52.266;10.542;2023-03-01T00:51:27;13.70;;;8.52;;
64959;SDS011;51487;52.266;10.542;2023-03-01T00:53:54;11.77;;;7.55;;
64959;SDS011;51487;52.266;10.542;2023-03-01T00:56:23;10.50;;;7.40;;
64959;SDS011;51487;52.266;10.542;2023-03-01T00:58:50;11.43;;;7.90;;
64959;SDS011;51487;52.266;10.542;2023-03-01T01:01:17;10.70;;;7.88;;
64959;SDS011;51487;52.266;10.542;2023-03-01T01:03:50;11.95;;;7.93;;
64959;SDS011;51487;52.266;10.542;2023-03-01T01:06:30;10.63;;;6.93;;
64959;SDS011;51487;52.266;10.542;2023-03-01T01:09:00;11.38;;;7.82;;
64959;SDS011;51487;52.266;10.542;2023-03-01T01:11:28;10.95;;;8.13;;
64959;SDS011;51487;52.266;10.542;2023-03-01T01:13:54;10.50;;;7.70;;
64959;SDS011;51487;52.266;10.542;2023-03-01T01:16:24;14.65;;;8.88;;
64959;SDS011;51487;52.266;10.542;2023-03-01T01:18:52;10.43;;;7.90;;
64959;SDS011;51487;52.266;10.542;2023-03-01T01:21:19;12.55;;;7.45;;
64959;SDS011;51487;52.266;10.542;2023-03-01T01:23:47;10.98;;;7.32;;
64959;SDS011;51487;52.266;10.542;2023-03-01T01:26:19;11.50;;;7.78;;
64959;SDS011;51487;52.266;10.542;2023-03-01T01:28:47;12.30;;;8.40;;
64959;SDS011;51487;52.266;10.542;2023-03-01T01:31:13;11.60;;;7.90;;
64959;SDS011;51487;52.266;10.542;2023-03-01T01:33:39;11.05;;;7.80;;
64959;SDS011;51487;52.266;10.542;2023-03-01T01:36:06;10.75;;;7.25;;
64959;SDS011;51487;52.266;10.542;2023-03-01T01:38:33;10.70;;;7.25;;
64959;SDS011;51487;52.266;10.542;2023-03-01T01:41:00;10.30;;;7.20;;
64959;SDS011;51487;52.266;10.542;2023-03-01T01:43:31;10.98;;;7.45;;
64959;SDS011;51487;52.266;10.542;2023-03-01T01:46:01;10.15;;;7.00;;
64959;SDS011;51487;52.266;10.542;2023-03-01T01:48:48;11.77;;;7.90;;
64959;SDS011;51487;52.266;10.542;2023-03-01T01:51:21;10.68;;;7.63;;
64959;SDS011;51487;52.266;10.542;2023-03-01T01:53:55;12.88;;;7.18;;
64959;SDS011;51487;52.266;10.542;2023-03-01T01:56:26;10.63;;;7.20;;
64959;SDS011;51487;52.266;10.542;2023-03-01T01:58:54;12.93;;;7.90;;
64959;SDS011;51487;52.266;10.542;2023-03-01T02:01:21;13.45;;;7.93;;
64959;SDS011;51487;52.266;10.542;2023-03-01T02:03:46;11.07;;;7.05;;
64959;SDS011;51487;52.266;10.542;2023-03-01T02:09:11;9.45;;;7.07;;
64959;SDS011;51487;52.266;10.542;2023-03-01T02:11:42;9.38;;;7.10;;
64959;SDS011;51487;52.266;10.542;2023-03-01T02:14:09;11.68;;;7.32;;
64959;SDS011;51487;52.266;10.542;2023-03-01T02:16:35;9.82;;;7.13;;
64959;SDS011;51487;52.266;10.542;2023-03-01T02:19:01;9.82;;;6.80;;
64959;SDS011;51487;52.266;10.542;2023-03-01T02:21:33;11.80;;;7.65;;
64959;SDS011;51487;52.266;10.542;2023-03-01T02:27:09;10.63;;;7.45;;
64959;SDS011;51487;52.266;10.542;2023-03-01T02:29:35;11.45;;;7.72;;
64959;SDS011;51487;52.266;10.542;2023-03-01T02:32:01;10.23;;;7.20;;
64959;SDS011;51487;52.266;10.542;2023-03-01T02:34:29;10.75;;;7.13;;
64959;SDS011;51487;52.266;10.542;2023-03-01T02:37:02;9.93;;;7.07;;
64959;SDS011;51487;52.266;10.542;2023-03-01T02:39:39;10.52;;;7.47;;
64959;SDS011;51487;52.266;10.542;2023-03-01T02:42:10;10.50;;;7.90;;
64959;SDS011;51487;52.266;10.542;2023-03-01T02:44:39;10.18;;;7.05;;
64959;SDS011;51487;52.266;10.542;2023-03-01T02:47:05;9.15;;;6.90;;
64959;SDS011;51487;52.266;10.542;2023-03-01T02:49:32;8.55;;;6.60;;
64959;SDS011;51487;52.266;10.542;2023-03-01T02:57:43;12.45;;;7.20;;
64959;SDS011;51487;52.266;10.542;2023-03-01T03:00:21;10.63;;;7.20;;
64959;SDS011;51487;52.266;10.542;2023-03-01T03:02:52;11.85;;;7.40;;
64959;SDS011;51487;52.266;10.542;2023-03-01T03:05:20;11.82;;;7.07;;
64959;SDS011;51487;52.266;10.542;2023-03-01T03:07:53;11.98;;;7.40;;
64959;SDS011;51487;52.266;10.542;2023-03-01T03:13:11;12.15;;;8.07;;
64959;SDS011;51487;52.266;10.542;2023-03-01T03:15:39;11.68;;;7.72;;
64959;SDS011;51487;52.266;10.542;2023-03-01T03:18:09;13.45;;;7.30;;
64959;SDS011;51487;52.266;10.542;2023-03-01T03:20:40;11.68;;;7.47;;
64959;SDS011;51487;52.266;10.542;2023-03-01T03:23:08;10.32;;;7.15;;
64959;SDS011;51487;52.266;10.542;2023-03-01T03:25:33;10.68;;;7.47;;
64959;SDS011;51487;52.266;10.542;2023-03-01T03:28:03;11.07;;;7.70;;
64959;SDS011;51487;52.266;10.542;2023-03-01T03:30:35;11.23;;;7.10;;
64959;SDS011;51487;52.266;10.542;2023-03-01T03:33:04;12.70;;;7.53;;
64959;SDS011;51487;52.266;10.542;2023-03-01T03:35:31;13.43;;;7.00;;
64959;SDS011;51487;52.266;10.542;2023-03-01T03:38:05;10.95;;;6.82;;
64959;SDS011;51487;52.266;10.542;2023-03-01T03:40:38;10.55;;;6.43;;
64959;SDS011;51487;52.266;10.542;2023-03-01T03:43:06;8.88;;;6.40;;
64959;SDS011;51487;52.266;10.542;2023-03-01T03:45:39;9.45;;;7.05;;
64959;SDS011;51487;52.266;10.542;2023-03-01T03:48:06;10.50;;;6.75;;
64959;SDS011;51487;52.266;10.542;2023-03-01T03:50:34;9.52;;;6.65;;
64959;SDS011;51487;52.266;10.542;2023-03-01T03:53:01;11.90;;;7.03;;
64959;SDS011;51487;52.266;10.542;2023-03-01T03:55:31;10.55;;;6.72;;
64959;SDS011;51487;52.266;10.542;2023-03-01T03:57:58;10.95;;;6.93;;
64959;SDS011;51487;52.266;10.542;2023-03-01T04:00:33;8.43;;;6.47;;
64959;SDS011;51487;52.266;10.542;2023-03-01T04:03:01;9.50;;;6.90;;
64959;SDS011;51487;52.266;10.542;2023-03-01T04:05:27;11.43;;;7.05;;
64959;SDS011;51487;52.266;10.542;2023-03-01T04:07:53;12.02;;;7.20;;
64959;SDS011;51487;52.266;10.542;2023-03-01T04:10:26;11.63;;;7.45;;
64959;SDS011;51487;52.266;10.542;2023-03-01T04:12:53;8.45;;;6.97;;
64959;SDS011;51487;52.266;10.542;2023-03-01T04:15:21;12.05;;;7.25;;
64959;SDS011;51487;52.266;10.542;2023-03-01T04:17:49;10.85;;;7.47;;
64959;SDS011;51487;52.266;10.542;2023-03-01T04:20:19;12.85;;;6.78;;
64959;SDS011;51487;52.266;10.542;2023-03-01T04:25:52;9.00;;;6.95;;
64959;SDS011;51487;52.266;10.542;2023-03-01T04:30:53;12.40;;;7.50;;
64959;SDS011;51487;52.266;10.542;2023-03-01T04:33:21;8.88;;;6.45;;
64959;SDS011;51487;52.266;10.542;2023-03-01T04:35:49;10.43;;;7.22;;
64959;SDS011;51487;52.266;10.542;2023-03-01T04:38:16;9.57;;;6.97;;
64959;SDS011;51487;52.266;10.542;2023-03-01T04:40:42;9.88;;;6.80;;
64959;SDS011;51487;52.266;10.542;2023-03-01T04:43:08;8.95;;;7.05;;
64959;SDS011;51487;52.266;10.542;2023-03-01T04:45:35;9.25;;;7.25;;
64959;SDS011;51487;52.266;10.542;2023-03-01T04:48:01;11.18;;;6.00;;
64959;SDS011;51487;52.266;10.542;2023-03-01T04:50:27;10.35;;;7.13;;
64959;SDS011;51487;52.266;10.542;2023-03-01T04:52:54;8.60;;;7.07;;
64959;SDS011;51487;52.266;10.542;2023-03-01T04:55:23;9.60;;;7.68;;
64959;SDS011;51487;52.266;10.542;2023-03-01T04:57:53;12.10;;;7.10;;
64959;SDS011;51487;52.266;10.542;2023-03-01T05:00:20;12.55;;;7.00;;
64959;SDS011;51487;52.266;10.542;2023-03-01T05:02:54;11.00;;;7.50;;
64959;SDS011;51487;52.266;10.542;2023-03-01T05:05:27;9.35;;;6.63;;
64959;SDS011;51487;52.266;10.542;2023-03-01T05:07:59;8.32;;;6.57;;
64959;SDS011;51487;52.266;10.542;2023-03-01T05:10:28;10.70;;;7.40;;
64959;SDS011;51487;52.266;10.542;2023-03-01T05:12:56;9.05;;;6.57;;
64959;SDS011;51487;52.266;10.542;2023-03-01T05:15:23;10.80;;;6.70;;
64959;SDS011;51487;52.266;10.542;2023-03-01T05:17:50;10.77;;;7.30;;
64959;SDS011;51487;52.266;10.542;2023-03-01T05:20:21;9.00;;;6.75;;
64959;SDS011;51487;52.266;10.542;2023-03-01T05:22:50;9.27;;;6.65;;
64959;SDS011;51487;52.266;10.542;2023-03-01T05:25:17;9.02;;;6.53;;
64959;SDS011;51487;52.266;10.542;2023-03-01T05:27:43;11.05;;;6.90;;
64959;SDS011;51487;52.266;10.542;2023-03-01T05:30:09;10.30;;;7.03;;
64959;SDS011;51487;52.266;10.542;2023-03-01T05:32:39;10.48;;;6.93;;
64959;SDS011;51487;52.266;10.542;2023-03-01T05:37:42;9.32;;;6.25;;
64959;SDS011;51487;52.266;10.542;2023-03-01T05:40:10;12.02;;;7.03;;
64959;SDS011;51487;52.266;10.542;2023-03-01T05:42:41;10.23;;;7.22;;
64959;SDS011;51487;52.266;10.542;2023-03-01T05:45:11;8.50;;;6.68;;
64959;SDS011;51487;52.266;10.542;2023-03-01T05:47:39;8.30;;;6.80;;
64959;SDS011;51487;52.266;10.542;2023-03-01T05:50:08;9.45;;;6.93;;
64959;SDS011;51487;52.266;10.542;2023-03-01T05:52:44;9.48;;;6.95;;
64959;SDS011;51487;52.266;10.542;2023-03-01T05:55:15;10.93;;;7.25;;
64959;SDS011;51487;52.266;10.542;2023-03-01T05:57:46;12.07;;;7.30;;
64959;SDS011;51487;52.266;10.542;2023-03-01T06:00:13;11.85;;;7.30;;
64959;SDS011;51487;52.266;10.542;2023-03-01T06:02:41;8.98;;;7.07;;
64959;SDS011;51487;52.266;10.542;2023-03-01T06:05:07;10.93;;;7.80;;
64959;SDS011;51487;52.266;10.542;2023-03-01T06:07:35;9.02;;;6.88;;
64959;SDS011;51487;52.266;10.542;2023-03-01T06:10:02;9.00;;;7.03;;
64959;SDS011;51487;52.266;10.542;2023-03-01T06:12:30;9.80;;;6.80;;
64959;SDS011;51487;52.266;10.542;2023-03-01T06:15:00;9.38;;;6.68;;
64959;SDS011;51487;52.266;10.542;2023-03-01T06:17:28;8.77;;;6.40;;
64959;SDS011;51487;52.266;10.542;2023-03-01T06:19:55;11.10;;;6.53;;
64959;SDS011;51487;52.266;10.542;2023-03-01T06:22:21;10.48;;;6.72;;
64959;SDS011;51487;52.266;10.542;2023-03-01T06:24:46;9.95;;;6.78;;
64959;SDS011;51487;52.266;10.542;2023-03-01T06:27:12;9.80;;;7.18;;
64959;SDS011;51487;52.266;10.542;2023-03-01T06:29:37;11.52;;;7.30;;
64959;SDS011;51487;52.266;10.542;2023-03-01T06:32:03;10.27;;;7.20;;
64959;SDS011;51487;52.266;10.542;2023-03-01T06:34:29;10.38;;;7.45;;
64959;SDS011;51487;52.266;10.542;2023-03-01T06:36:55;11.80;;;7.15;;
64959;SDS011;51487;52.266;10.542;2023-03-01T06:39:21;8.10;;;6.28;;
64959;SDS011;51487;52.266;10.542;2023-03-01T06:41:46;11.82;;;6.72;;
64959;SDS011;51487;52.266;10.542;2023-03-01T06:44:12;9.45;;;6.43;;
64959;SDS011;51487;52.266;10.542;2023-03-01T06:46:38;9.23;;;6.82;;
64959;SDS011;51487;52.266;10.542;2023-03-01T06:49:05;10.75;;;7.47;;
64959;SDS011;51487;52.266;10.542;2023-03-01T06:51:34;9.10;;;6.90;;
64959;SDS011;51487;52.266;10.542;2023-03-01T06:54:02;8.80;;;6.68;;
64959;SDS011;51487;52.266;10.542;2023-03-01T06:56:30;7.50;;;6.50;;
64959;SDS011;51487;52.266;10.542;2023-03-01T06:58:56;9.13;;;6.82;;
64959;SDS011;51487;52.266;10.542;2023-03-01T07:01:22;12.43;;;7.50;;
64959;SDS011;51487;52.266;10.542;2023-03-01T07:03:48;12.23;;;7.53;;
64959;SDS011;51487;52.266;10.542;2023-03-01T07:06:13;10.27;;;7.97;;
64959;SDS011;51487;52.266;10.542;2023-03-01T07:08:39;11.07;;;7.43;;
64959;SDS011;51487;52.266;10.542;2023-03-01T07:11:04;10.23;;;7.25;;
64959;SDS011;51487;52.266;10.542;2023-03-01T07:13:30;9.77;;;7.05;;
64959;SDS011;51487;52.266;10.542;2023-03-01T07:15:56;9.90;;;7.22;;
64959;SDS011;51487;52.266;10.542;2023-03-01T07:18:22;10.68;;;7.20;;
64959;SDS011;51487;52.266;10.542;2023-03-01T07:20:48;10.25;;;7.07;;
64959;SDS011;51487;52.266;10.542;2023-03-01T07:23:14;10.25;;;7.07;;
64959;SDS011;51487;52.266;10.542;2023-03-01T07:25:40;9.90;;;7.70;;
64959;SDS011;51487;52.266;10.542;2023-03-01T07:28:06;8.07;;;6.60;;
64959;SDS011;51487;52.266;10.542;2023-03-01T07:30:31;12.85;;;7.28;;
64959;SDS011;51487;52.266;10.542;2023-03-01T07:32:57;10.43;;;7.35;;
64959;SDS011;51487;52.266;10.542;2023-03-01T07:35:24;11.75;;;7.97;;
64959;SDS011;51487;52.266;10.542;2023-03-01T07:37:51;14.63;;;9.02;;
64959;SDS011;51487;52.266;10.542;2023-03-01T07:40:17;16.27;;;9.93;;
64959;SDS011;51487;52.266;10.542;2023-03-01T07:42:44;12.15;;;7.85;;
64959;SDS011;51487;52.266;10.542;2023-03-01T07:45:10;12.57;;;8.18;;
64959;SDS011;51487;52.266;10.542;2023-03-01T07:47:36;12.30;;;7.15;;
64959;SDS011;51487;52.266;10.542;2023-03-01T07:50:02;12.02;;;8.35;;
64959;SDS011;51487;52.266;10.542;2023-03-01T07:52:30;10.60;;;7.63;;
64959;SDS011;51487;52.266;10.542;2023-03-01T07:54:56;12.57;;;7.70;;
64959;SDS011;51487;52.266;10.542;2023-03-01T07:57:22;9.48;;;7.45;;
64959;SDS011;51487;52.266;10.542;2023-03-01T07:59:48;15.00;;;8.35;;
64959;SDS011;51487;52.266;10.542;2023-03-01T08:02:14;12.68;;;7.57;;
64959;SDS011;51487;52.266;10.542;2023-03-01T08:04:40;9.68;;;7.45;;
64959;SDS011;51487;52.266;10.542;2023-03-01T08:07:07;11.05;;;7.57;;
64959;SDS011;51487;52.266;10.542;2023-03-01T08:09:35;10.05;;;7.43;;
64959;SDS011;51487;52.266;10.542;2023-03-01T08:12:04;10.32;;;7.18;;
64959;SDS011;51487;52.266;10.542;2023-03-01T08:14:31;10.30;;;6.57;;
64959;SDS011;51487;52.266;10.542;2023-03-01T08:16:57;10.82;;;7.05;;
64959;SDS011;51487;52.266;10.542;2023-03-01T08:19:23;9.85;;;7.05;;
64959;SDS011;51487;52.266;10.542;2023-03-01T08:21:49;8.45;;;6.40;;
64959;SDS011;51487;52.266;10.542;2023-03-01T08:24:14;9.38;;;6.88;;
64959;SDS011;51487;52.266;10.542;2023-03-01T08:26:40;8.43;;;6.43;;
64959;SDS011;51487;52.266;10.542;2023-03-01T08:29:06;7.40;;;5.80;;
64959;SDS011;51487;52.266;10.542;2023-03-01T08:31:33;9.10;;;5.57;;
64959;SDS011;51487;52.266;10.542;2023-03-01T08:34:05;9.77;;;5.90;;
64959;SDS011;51487;52.266;10.542;2023-03-01T08:36:41;6.95;;;5.13;;
64959;SDS011;51487;52.266;10.542;2023-03-01T08:39:11;8.85;;;5.40;;
64959;SDS011;51487;52.266;10.542;2023-03-01T08:41:40;8.43;;;5.60;;
64959;SDS011;51487;52.266;10.542;2023-03-01T08:44:06;7.05;;;5.30;;
64959;SDS011;51487;52.266;10.542;2023-03-01T08:46:34;12.30;;;5.47;;
64959;SDS011;51487;52.266;10.542;2023-03-01T08:49:03;10.00;;;5.68;;
64959;SDS011;51487;52.266;10.542;2023-03-01T08:51:35;6.80;;;4.95;;
64959;SDS011;51487;52.266;10.542;2023-03-01T08:54:06;8.10;;;5.30;;
64959;SDS011;51487;52.266;10.542;2023-03-01T08:56:36;7.93;;;5.45;;
64959;SDS011;51487;52.266;10.542;2023-03-01T08:59:02;8.30;;;5.28;;
64959;SDS011;51487;52.266;10.542;2023-03-01T09:01:27;6.75;;;5.65;;
64959;SDS011;51487;52.266;10.542;2023-03-01T09:03:53;7.82;;;4.65;;
64959;SDS011;51487;52.266;10.542;2023-03-01T09:06:19;7.72;;;5.05;;
64959;SDS011;51487;52.266;10.542;2023-03-01T09:08:45;6.50;;;4.50;;
64959;SDS011;51487;52.266;10.542;2023-03-01T09:11:14;8.30;;;4.78;;
64959;SDS011;51487;52.266;10.542;2023-03-01T09:13:46;8.03;;;5.43;;
64959;SDS011;51487;52.266;10.542;2023-03-01T09:16:14;6.70;;;5.13;;
64959;SDS011;51487;52.266;10.542;2023-03-01T09:18:43;9.27;;;4.97;;
64959;SDS011;51487;52.266;10.542;2023-03-01T09:21:10;7.68;;;4.50;;
64959;SDS011;51487;52.266;10.542;2023-03-01T09:23:40;7.32;;;4.70;;
64959;SDS011;51487;52.266;10.542;2023-03-01T09:26:11;7.28;;;4.63;;
64959;SDS011;51487;52.266;10.542;2023-03-01T09:28:49;7.00;;;5.00;;
64959;SDS011;51487;52.266;10.542;2023-03-01T09:31:17;8.77;;;4.53;;
64959;SDS011;51487;52.266;10.542;2023-03-01T09:33:50;8.18;;;4.82;;
64959;SDS011;51487;52.266;10.542;2023-03-01T09:36:18;6.75;;;4.65;;
64959;SDS011;51487;52.266;10.542;2023-03-01T09:38:48;6.63;;;4.72;;
64959;SDS011;51487;52.266;10.542;2023-03-01T09:45:10;7.65;;;4.68;;
64959;SDS011;51487;52.266;10.542;2023-03-01T09:47:40;7.30;;;4.63;;
64959;SDS011;51487;52.266;10.542;2023-03-01T09:52:46;7.25;;;4.25;;
64959;SDS011;51487;52.266;10.542;2023-03-01T09:56:02;5.90;;;4.43;;
64959;SDS011;51487;52.266;10.542;2023-03-01T10:00:54;7.57;;;4.10;;
64959;SDS011;51487;52.266;10.542;2023-03-01T10:06:11;6.10;;;3.97;;
64959;SDS011;51487;52.266;10.542;2023-03-01T10:08:53;6.32;;;4.00;;
64959;SDS011;51487;52.266;10.542;2023-03-01T10:11:26;6.97;;;4.45;;
64959;SDS011;51487;52.266;10.542;2023-03-01T10:14:20;6.68;;;3.75;;
64959;SDS011;51487;52.266;10.542;2023-03-01T10:17:09;6.20;;;3.45;;
64959;SDS011;51487;52.266;10.542;2023-03-01T10:19:45;6.53;;;4.20;;
64959;SDS011;51487;52.266;10.542;2023-03-01T10:22:16;7.38;;;4.03;;
64959;SDS011;51487;52.266;10.542;2023-03-01T10:24:47;7.10;;;3.97;;
64959;SDS011;51487;52.266;10.542;2023-03-01T10:29:58;5.65;;;3.80;;
64959;SDS011;51487;52.266;10.542;2023-03-01T10:32:46;7.13;;;3.80;;
64959;SDS011;51487;52.266;10.542;2023-03-01T10:35:23;7.70;;;4.35;;
64959;SDS011;51487;52.266;10.542;2023-03-01T10:37:58;5.95;;;3.90;;
64959;SDS011;51487;52.266;10.542;2023-03-01T10:40:35;6.82;;;3.55;;
64959;SDS011;51487;52.266;10.542;2023-03-01T10:43:18;7.05;;;4.13;;
64959;SDS011;51487;52.266;10.542;2023-03-01T10:45:45;6.20;;;4.10;;
64959;SDS011;51487;52.266;10.542;2023-03-01T10:48:16;5.60;;;3.83;;
64959;SDS011;51487;52.266;10.542;2023-03-01T10:50:47;5.32;;;3.85;;
64959;SDS011;51487;52.266;10.542;2023-03-01T10:56:15;6.68;;;4.00;;
64959;SDS011;51487;52.266;10.542;2023-03-01T10:58:56;5.53;;;3.67;;
64959;SDS011;51487;52.266;10.542;2023-03-01T11:01:26;6.57;;;3.88;;
64959;SDS011;51487;52.266;10.542;2023-03-01T11:06:31;6.00;;;3.58;;
64959;SDS011;51487;52.266;10.542;2023-03-01T11:09:13;6.47;;;3.92;;
64959;SDS011;51487;52.266;10.542;2023-03-01T11:11:44;7.35;;;4.28;;
64959;SDS011;51487;52.266;10.542;2023-03-01T11:14:15;5.68;;;3.90;;
64959;SDS011;51487;52.266;10.542;2023-03-01T11:16:45;5.38;;;4.00;;
64959;SDS011;51487;52.266;10.542;2023-03-01T11:19:22;4.63;;;3.47;;
64959;SDS011;51487;52.266;10.542;2023-03-01T11:21:59;5.90;;;3.80;;
64959;SDS011;51487;52.266;10.542;2023-03-01T11:32:53;5.68;;;3.65;;
64959;SDS011;51487;52.266;10.542;2023-03-01T11:35:42;6.00;;;3.60;;
64959;SDS011;51487;52.266;10.542;2023-03-01T11:38:23;6.07;;;3.65;;
64959;SDS011;51487;52.266;10.542;2023-03-01T11:40:57;4.57;;;3.58;;
64959;SDS011;51487;52.266;10.542;2023-03-01T11:49:06;7.05;;;3.42;;
64959;SDS011;51487;52.266;10.542;2023-03-01T11:52:21;5.85;;;3.42;;
64959;SDS011;51487;52.266;10.542;2023-03-01T12:09:03;8.82;;;4.35;;
64959;SDS011;51487;52.266;10.542;2023-03-01T12:14:49;5.47;;;3.50;;
64959;SDS011;51487;52.266;10.542;2023-03-01T12:23:56;6.07;;;3.72;;
64959;SDS011;51487;52.266;10.542;2023-03-01T12:33:07;4.68;;;3.03;;
64959;SDS011;51487;52.266;10.542;2023-03-01T12:36:18;5.72;;;3.38;;
64959;SDS011;51487;52.266;10.542;2023-03-01T12:50:22;7.13;;;3.47;;
64959;SDS011;51487;52.266;10.542;2023-03-01T12:53:04;5.20;;;3.30;;
64959;SDS011;51487;52.266;10.542;2023-03-01T12:55:33;6.13;;;4.10;;
64959;SDS011;51487;52.266;10.542;2023-03-01T12:58:09;4.72;;;3.42;;
64959;SDS011;51487;52.266;10.542;2023-03-01T13:01:13;4.97;;;3.75;;
64959;SDS011;51487;52.266;10.542;2023-03-01T13:12:43;5.38;;;3.35;;
64959;SDS011;51487;52.266;10.542;2023-03-01T13:15:33;7.53;;;3.78;;
64959;SDS011;51487;52.266;10.542;2023-03-01T13:18:03;4.18;;;3.00;;
64959;SDS011;51487;52.266;10.542;2023-03-01T13:20:52;4.82;;;3.42;;
64959;SDS011;51487;52.266;10.542;2023-03-01T13:31:03;4.55;;;3.67;;
64959;SDS011;51487;52.266;10.542;2023-03-01T13:35:59;4.65;;;3.70;;
64959;SDS011;51487;52.266;10.542;2023-03-01T13:38:44;6.00;;;3.70;;
64959;SDS011;51487;52.266;10.542;2023-03-01T13:44:24;5.63;;;3.65;;
64959;SDS011;51487;52.266;10.542;2023-03-01T13:47:03;5.07;;;3.60;;
64959;SDS011;51487;52.266;10.542;2023-03-01T13:57:45;5.57;;;3.60;;
64959;SDS011;51487;52.266;10.542;2023-03-01T14:05:38;7.03;;;3.70;;
64959;SDS011;51487;52.266;10.542;2023-03-01T14:08:21;6.10;;;3.45;;
64959;SDS011;51487;52.266;10.542;2023-03-01T14:19:32;6.57;;;3.55;;
64959;SDS011;51487;52.266;10.542;2023-03-01T14:22:17;5.50;;;3.42;;
64959;SDS011;51487;52.266;10.542;2023-03-01T14:25:00;7.07;;;3.80;;
64959;SDS011;51487;52.266;10.542;2023-03-01T14:27:38;5.65;;;3.40;;
64959;SDS011;51487;52.266;10.542;2023-03-01T14:30:20;7.40;;;4.03;;
64959;SDS011;51487;52.266;10.542;2023-03-01T14:32:57;5.28;;;3.20;;
64959;SDS011;51487;52.266;10.542;2023-03-01T14:35:31;5.90;;;2.92;;
64959;SDS011;51487;52.266;10.542;2023-03-01T14:38:01;7.82;;;3.47;;
64959;SDS011;51487;52.266;10.542;2023-03-01T14:42:58;3.70;;;2.70;;
64959;SDS011;51487;52.266;10.542;2023-03-01T14:45:27;6.55;;;2.97;;
64959;SDS011;51487;52.266;10.542;2023-03-01T14:47:55;4.43;;;2.88;;
64959;SDS011;51487;52.266;10.542;2023-03-01T14:50:28;5.13;;;2.83;;
64959;SDS011;51487;52.266;10.542;2023-03-01T14:53:03;5.53;;;2.97;;
64959;SDS011;51487;52.266;10.542;2023-03-01T14:55:41;4.68;;;2.97;;
64959;SDS011;51487;52.266;10.542;2023-03-01T14:58:12;4.22;;;3.22;;
64959;SDS011;51487;52.266;10.542;2023-03-01T15:00:46;5.60;;;3.20;;
64959;SDS011;51487;52.266;10.542;2023-03-01T15:03:39;4.80;;;3.03;;
64959;SDS011;51487;52.266;10.542;2023-03-01T15:06:09;5.13;;;2.85;;
64959;SDS011;51487;52.266;10.542;2023-03-01T15:08:41;4.15;;;2.95;;
64959;SDS011;51487;52.266;10.542;2023-03-01T15:11:27;3.60;;;2.72;;
64959;SDS011;51487;52.266;10.542;2023-03-01T15:13:56;3.53;;;2.90;;
64959;SDS011;51487;52.266;10.542;2023-03-01T15:16:23;3.83;;;2.63;;
64959;SDS011;51487;52.266;10.542;2023-03-01T15:18:57;5.15;;;2.92;;
64959;SDS011;51487;52.266;10.542;2023-03-01T15:21:29;4.25;;;2.97;;
64959;SDS011;51487;52.266;10.542;2023-03-01T15:24:16;5.80;;;3.20;;
64959;SDS011;51487;52.266;10.542;2023-03-01T15:26:56;5.40;;;2.80;;
64959;SDS011;51487;52.266;10.542;2023-03-01T15:29:27;4.55;;;2.58;;
64959;SDS011;51487;52.266;10.542;2023-03-01T15:32:05;5.25;;;2.90;;
64959;SDS011;51487;52.266;10.542;2023-03-01T15:34:52;4.93;;;3.00;;
64959;SDS011;51487;52.266;10.542;2023-03-01T15:40:21;4.40;;;2.72;;
64959;SDS011;51487;52.266;10.542;2023-03-01T15:42:57;3.40;;;2.50;;
64959;SDS011;51487;52.266;10.542;2023-03-01T15:45:28;4.50;;;2.85;;
64959;SDS011;51487;52.266;10.542;2023-03-01T15:48:02;4.15;;;2.75;;
64959;SDS011;51487;52.266;10.542;2023-03-01T15:50:38;7.32;;;2.80;;
64959;SDS011;51487;52.266;10.542;2023-03-01T15:53:06;6.43;;;2.63;;
64959;SDS011;51487;52.266;10.542;2023-03-01T15:55:37;4.97;;;2.90;;
64959;SDS011;51487;52.266;10.542;2023-03-01T16:00:38;5.93;;;2.80;;
64959;SDS011;51487;52.266;10.542;2023-03-01T16:03:04;5.22;;;2.70;;
64959;SDS011;51487;52.266;10.542;2023-03-01T16:05:32;5.55;;;2.70;;
64959;SDS011;51487;52.266;10.542;2023-03-01T16:08:00;5.90;;;3.28;;
64959;SDS011;51487;52.266;10.542;2023-03-01T16:10:26;3.67;;;2.75;;
64959;SDS011;51487;52.266;10.542;2023-03-01T16:12:52;3.95;;;2.90;;
64959;SDS011;51487;52.266;10.542;2023-03-01T16:15:20;3.95;;;2.67;;
64959;SDS011;51487;52.266;10.542;2023-03-01T16:17:52;5.38;;;3.03;;
64959;SDS011;51487;52.266;10.542;2023-03-01T16:20:18;4.20;;;2.78;;
64959;SDS011;51487;52.266;10.542;2023-03-01T16:22:44;4.97;;;3.22;;
64959;SDS011;51487;52.266;10.542;2023-03-01T16:25:11;5.78;;;3.42;;
64959;SDS011;51487;52.266;10.542;2023-03-01T16:27:43;4.75;;;3.22;;
64959;SDS011;51487;52.266;10.542;2023-03-01T16:30:11;5.78;;;2.80;;
64959;SDS011;51487;52.266;10.542;2023-03-01T16:32:39;5.05;;;3.00;;
64959;SDS011;51487;52.266;10.542;2023-03-01T16:35:06;4.22;;;2.55;;
64959;SDS011;51487;52.266;10.542;2023-03-01T16:37:34;4.15;;;2.83;;
64959;SDS011;51487;52.266;10.542;2023-03-01T16:40:02;4.35;;;3.17;;
64959;SDS011;51487;52.266;10.542;2023-03-01T16:42:33;4.80;;;3.20;;
64959;SDS011;51487;52.266;10.542;2023-03-01T16:45:00;5.60;;;3.25;;
64959;SDS011;51487;52.266;10.542;2023-03-01T16:47:26;5.28;;;3.00;;
64959;SDS011;51487;52.266;10.542;2023-03-01T16:49:53;6.45;;;2.95;;
64959;SDS011;51487;52.266;10.542;2023-03-01T16:52:20;3.50;;;2.90;;
64959;SDS011;51487;52.266;10.542;2023-03-01T16:54:47;4.43;;;3.00;;
64959;SDS011;51487;52.266;10.542;2023-03-01T16:57:13;3.05;;;2.58;;
64959;SDS011;51487;52.266;10.542;2023-03-01T16:59:39;4.90;;;2.97;;
64959;SDS011;51487;52.266;10.542;2023-03-01T17:02:06;5.22;;;3.05;;
64959;SDS011;51487;52.266;10.542;2023-03-01T17:04:36;6.15;;;3.03;;
64959;SDS011;51487;52.266;10.542;2023-03-01T17:07:02;5.93;;;3.13;;
64959;SDS011;51487;52.266;10.542;2023-03-01T17:09:27;6.82;;;3.05;;
64959;SDS011;51487;52.266;10.542;2023-03-01T17:11:53;6.97;;;3.58;;
64959;SDS011;51487;52.266;10.542;2023-03-01T17:14:19;5.88;;;3.13;;
64959;SDS011;51487;52.266;10.542;2023-03-01T17:16:45;5.93;;;3.33;;